ROG3RR LESO-LEXJ
Flight info
| Callsign | ROG3RR |
|---|---|
| Flight time | 0h 45m |
| Altitude | 8000 |
| Route | BLV |
| Aircraft | DA42/L-SBDGRY/S |
Departure
| Time | 2026-05-08 12:28 |
|---|---|
| Airport | San Sebastián Airport (LESO) |
Arrival
| Time | 2026-05-08 13:14 |
|---|---|
| Airport | Seve Ballesteros-Santander Airport (LEXJ) |
| Time | Latitude | Longitude | Altitude | Speed | Heading |
|---|---|---|---|---|---|
| 2026-05-08 11:44 | 43.35511 | -1.79392 | 11 ft | 0 kts | 128° |
| 2026-05-08 12:01 | 43.35501 | -1.79402 | 11 ft | 0 kts | 128° |
| 2026-05-08 12:10 | 43.35500 | -1.79400 | 11 ft | 2 kts | 128° |
| 2026-05-08 12:10 | 43.35497 | -1.79393 | 11 ft | 1 kts | 110° |
| 2026-05-08 12:10 | 43.35496 | -1.79384 | 11 ft | 1 kts | 95° |
| 2026-05-08 12:11 | 43.35495 | -1.79373 | 12 ft | 1 kts | 95° |
| 2026-05-08 12:11 | 43.35492 | -1.79363 | 12 ft | 1 kts | 126° |
| 2026-05-08 12:11 | 43.35487 | -1.79355 | 12 ft | 1 kts | 135° |
| 2026-05-08 12:11 | 43.35487 | -1.79343 | 13 ft | 2 kts | 39° |
| 2026-05-08 12:12 | 43.35489 | -1.79342 | 13 ft | 0 kts | 6° |
| 2026-05-08 12:22 | 43.35492 | -1.79341 | 13 ft | 2 kts | 5° |
| 2026-05-08 12:22 | 43.35517 | -1.79324 | 12 ft | 0 kts | 36° |
| 2026-05-08 12:23 | 43.35537 | -1.79304 | 12 ft | 3 kts | 38° |
| 2026-05-08 12:23 | 43.35541 | -1.79281 | 12 ft | 0 kts | 125° |
| 2026-05-08 12:26 | 43.35535 | -1.79269 | 12 ft | 6 kts | 127° |
| 2026-05-08 12:26 | 43.35474 | -1.79257 | 13 ft | 15 kts | 214° |
| 2026-05-08 12:26 | 43.35389 | -1.79330 | 14 ft | 14 kts | 225° |
| 2026-05-08 12:26 | 43.35312 | -1.79425 | 14 ft | 18 kts | 217° |
| 2026-05-08 12:27 | 43.35186 | -1.79568 | 15 ft | 26 kts | 216° |
| 2026-05-08 12:27 | 43.35089 | -1.79707 | 14 ft | 17 kts | 257° |
| 2026-05-08 12:27 | 43.35049 | -1.79735 | 14 ft | 10 kts | 119° |
| 2026-05-08 12:27 | 43.35085 | -1.79681 | 14 ft | 13 kts | 38° |
| 2026-05-08 12:28 | 43.35324 | -1.79419 | 14 ft | 73 kts | 38° |
| 2026-05-08 12:28 | 43.35810 | -1.78903 | 99 ft | 95 kts | 40° |
| 2026-05-08 12:28 | 43.36330 | -1.78368 | 420 ft | 93 kts | 25° |
| 2026-05-08 12:28 | 43.36995 | -1.78246 | 733 ft | 102 kts | 5° |
| 2026-05-08 12:29 | 43.37685 | -1.78240 | 1204 ft | 96 kts | 2° |
| 2026-05-08 12:29 | 43.38388 | -1.78061 | 1395 ft | 106 kts | 19° |
| 2026-05-08 12:29 | 43.39084 | -1.77718 | 1629 ft | 108 kts | 22° |
| 2026-05-08 12:29 | 43.39806 | -1.77377 | 1805 ft | 114 kts | 24° |
| 2026-05-08 12:30 | 43.40563 | -1.76976 | 2025 ft | 116 kts | 23° |
| 2026-05-08 12:30 | 43.41062 | -1.76727 | 2170 ft | 116 kts | 22° |
| 2026-05-08 12:30 | 43.42075 | -1.76256 | 2455 ft | 116 kts | 18° |
| 2026-05-08 12:30 | 43.42876 | -1.76060 | 2662 ft | 119 kts | 357° |
| 2026-05-08 12:31 | 43.43657 | -1.76386 | 2849 ft | 117 kts | 315° |
| 2026-05-08 12:31 | 43.44043 | -1.77279 | 3090 ft | 105 kts | 276° |
| 2026-05-08 12:31 | 43.44259 | -1.78229 | 3316 ft | 102 kts | 272° |
| 2026-05-08 12:31 | 43.44360 | -1.78870 | 3474 ft | 99 kts | 264° |
| 2026-05-08 12:32 | 43.44412 | -1.79799 | 3689 ft | 98 kts | 260° |
| 2026-05-08 12:32 | 43.44419 | -1.80737 | 3896 ft | 99 kts | 260° |
| 2026-05-08 12:32 | 43.44455 | -1.81670 | 4119 ft | 98 kts | 260° |
| 2026-05-08 12:32 | 43.44474 | -1.82608 | 4343 ft | 97 kts | 257° |
| 2026-05-08 12:33 | 43.44517 | -1.83552 | 4577 ft | 99 kts | 261° |
| 2026-05-08 12:33 | 43.44553 | -1.84491 | 4810 ft | 97 kts | 255° |
| 2026-05-08 12:33 | 43.44563 | -1.85431 | 5028 ft | 99 kts | 260° |
| 2026-05-08 12:33 | 43.44607 | -1.86379 | 5255 ft | 100 kts | 261° |
| 2026-05-08 12:34 | 43.44625 | -1.87317 | 5478 ft | 98 kts | 258° |
| 2026-05-08 12:34 | 43.44622 | -1.88250 | 5693 ft | 98 kts | 257° |
| 2026-05-08 12:34 | 43.44607 | -1.89180 | 5928 ft | 96 kts | 253° |
| 2026-05-08 12:34 | 43.44551 | -1.90103 | 6146 ft | 97 kts | 253° |
| 2026-05-08 12:35 | 43.44490 | -1.91037 | 6361 ft | 98 kts | 253° |
| 2026-05-08 12:35 | 43.44402 | -1.91957 | 6597 ft | 96 kts | 249° |
| 2026-05-08 12:35 | 43.44315 | -1.92881 | 6817 ft | 97 kts | 252° |
| 2026-05-08 12:35 | 43.44238 | -1.93799 | 7044 ft | 97 kts | 253° |
| 2026-05-08 12:36 | 43.44159 | -1.94710 | 7286 ft | 95 kts | 252° |
| 2026-05-08 12:36 | 43.44071 | -1.95615 | 7500 ft | 96 kts | 252° |
| 2026-05-08 12:36 | 43.43975 | -1.96521 | 7721 ft | 97 kts | 252° |
| 2026-05-08 12:36 | 43.43888 | -1.97468 | 7905 ft | 102 kts | 255° |
| 2026-05-08 12:37 | 43.43819 | -1.98556 | 7880 ft | 124 kts | 259° |
| 2026-05-08 12:37 | 43.43760 | -1.99760 | 7912 ft | 127 kts | 257° |
| 2026-05-08 12:37 | 43.43673 | -2.00980 | 7910 ft | 129 kts | 257° |
| 2026-05-08 12:37 | 43.43584 | -2.02209 | 7913 ft | 131 kts | 258° |
| 2026-05-08 12:38 | 43.43507 | -2.03471 | 7891 ft | 134 kts | 258° |
| 2026-05-08 12:38 | 43.43417 | -2.04740 | 7897 ft | 133 kts | 257° |
| 2026-05-08 12:38 | 43.43316 | -2.06008 | 7884 ft | 134 kts | 256° |
| 2026-05-08 12:38 | 43.43217 | -2.07286 | 7890 ft | 133 kts | 257° |
| 2026-05-08 12:39 | 43.43115 | -2.08555 | 7873 ft | 135 kts | 257° |
| 2026-05-08 12:39 | 43.43021 | -2.09834 | 7876 ft | 134 kts | 257° |
| 2026-05-08 12:39 | 43.42931 | -2.11103 | 7884 ft | 134 kts | 257° |
| 2026-05-08 12:39 | 43.42852 | -2.12376 | 7882 ft | 134 kts | 258° |
| 2026-05-08 12:40 | 43.42750 | -2.13643 | 7875 ft | 133 kts | 254° |
| 2026-05-08 12:40 | 43.42682 | -2.14917 | 7878 ft | 136 kts | 271° |
| 2026-05-08 12:40 | 43.42895 | -2.16199 | 7859 ft | 141 kts | 281° |
| 2026-05-08 12:40 | 43.43177 | -2.17435 | 7896 ft | 135 kts | 268° |
| 2026-05-08 12:41 | 43.42899 | -2.18578 | 7900 ft | 125 kts | 229° |
| 2026-05-08 12:41 | 43.42425 | -2.19587 | 7892 ft | 129 kts | 242° |
| 2026-05-08 12:41 | 43.42154 | -2.20766 | 7901 ft | 130 kts | 249° |
| 2026-05-08 12:41 | 43.41938 | -2.21979 | 7901 ft | 131 kts | 251° |
| 2026-05-08 12:42 | 43.41737 | -2.23198 | 7899 ft | 131 kts | 251° |
| 2026-05-08 12:42 | 43.41540 | -2.24419 | 7895 ft | 131 kts | 251° |
| 2026-05-08 12:42 | 43.41345 | -2.25639 | 7893 ft | 131 kts | 251° |
| 2026-05-08 12:42 | 43.41149 | -2.26859 | 7897 ft | 131 kts | 251° |
| 2026-05-08 12:43 | 43.40954 | -2.28078 | 7893 ft | 130 kts | 251° |
| 2026-05-08 12:43 | 43.40759 | -2.29295 | 7898 ft | 130 kts | 251° |
| 2026-05-08 12:43 | 43.40563 | -2.30513 | 7888 ft | 130 kts | 251° |
| 2026-05-08 12:43 | 43.40367 | -2.31734 | 7891 ft | 131 kts | 251° |
| 2026-05-08 12:44 | 43.40171 | -2.32955 | 7894 ft | 131 kts | 252° |
| 2026-05-08 12:44 | 43.39974 | -2.34175 | 7890 ft | 131 kts | 252° |
| 2026-05-08 12:44 | 43.39778 | -2.35397 | 7891 ft | 131 kts | 252° |
| 2026-05-08 12:44 | 43.39581 | -2.36620 | 7887 ft | 131 kts | 251° |
| 2026-05-08 12:45 | 43.39384 | -2.37843 | 7889 ft | 131 kts | 252° |
| 2026-05-08 12:45 | 43.39190 | -2.39045 | 7893 ft | 131 kts | 251° |
| 2026-05-08 12:45 | 43.38993 | -2.40262 | 7888 ft | 130 kts | 251° |
| 2026-05-08 12:45 | 43.38798 | -2.41473 | 7891 ft | 130 kts | 251° |
| 2026-05-08 12:46 | 43.38601 | -2.42685 | 7898 ft | 130 kts | 252° |
| 2026-05-08 12:46 | 43.38405 | -2.43899 | 7888 ft | 130 kts | 251° |
| 2026-05-08 12:46 | 43.38209 | -2.45112 | 7888 ft | 130 kts | 251° |
| 2026-05-08 12:46 | 43.38013 | -2.46320 | 7886 ft | 129 kts | 251° |
| 2026-05-08 12:47 | 43.37817 | -2.47528 | 7887 ft | 130 kts | 251° |
| 2026-05-08 12:47 | 43.37620 | -2.48739 | 7891 ft | 130 kts | 251° |
| 2026-05-08 12:47 | 43.37424 | -2.49951 | 7888 ft | 130 kts | 251° |
| 2026-05-08 12:47 | 43.37228 | -2.51155 | 7888 ft | 129 kts | 252° |
| 2026-05-08 12:48 | 43.37035 | -2.52356 | 7885 ft | 128 kts | 251° |
| 2026-05-08 12:48 | 43.36838 | -2.53553 | 7888 ft | 129 kts | 251° |
| 2026-05-08 12:48 | 43.36641 | -2.54762 | 7885 ft | 130 kts | 251° |
| 2026-05-08 12:48 | 43.36444 | -2.55966 | 7889 ft | 129 kts | 251° |
| 2026-05-08 12:49 | 43.36248 | -2.57177 | 7884 ft | 130 kts | 251° |
| 2026-05-08 12:49 | 43.36052 | -2.58369 | 7894 ft | 130 kts | 251° |
| 2026-05-08 12:49 | 43.35855 | -2.59587 | 7883 ft | 127 kts | 251° |
| 2026-05-08 12:49 | 43.35660 | -2.60778 | 7865 ft | 127 kts | 250° |
| 2026-05-08 12:50 | 43.35472 | -2.61930 | 7887 ft | 127 kts | 251° |
| 2026-05-08 12:50 | 43.35273 | -2.63125 | 7875 ft | 128 kts | 251° |
| 2026-05-08 12:50 | 43.35080 | -2.64311 | 7888 ft | 128 kts | 251° |
| 2026-05-08 12:50 | 43.34879 | -2.65540 | 7889 ft | 132 kts | 251° |
| 2026-05-08 12:51 | 43.34681 | -2.66754 | 7881 ft | 132 kts | 251° |
| 2026-05-08 12:51 | 43.34284 | -2.69178 | 7886 ft | 128 kts | 251° |
| 2026-05-08 12:51 | 43.34087 | -2.70377 | 7890 ft | 130 kts | 251° |
| 2026-05-08 12:52 | 43.33885 | -2.71603 | 7878 ft | 131 kts | 251° |
| 2026-05-08 12:52 | 43.33485 | -2.74021 | 7887 ft | 131 kts | 251° |
| 2026-05-08 12:52 | 43.33283 | -2.75247 | 7886 ft | 132 kts | 251° |
| 2026-05-08 12:53 | 43.33080 | -2.76478 | 7890 ft | 133 kts | 251° |
| 2026-05-08 12:53 | 43.32875 | -2.77727 | 7890 ft | 135 kts | 251° |
| 2026-05-08 12:53 | 43.32667 | -2.78985 | 7888 ft | 135 kts | 252° |
| 2026-05-08 12:53 | 43.32458 | -2.80246 | 7893 ft | 136 kts | 251° |
| 2026-05-08 12:54 | 43.32249 | -2.81510 | 7886 ft | 135 kts | 251° |
| 2026-05-08 12:54 | 43.32043 | -2.82765 | 7888 ft | 135 kts | 251° |
| 2026-05-08 12:54 | 43.31838 | -2.84011 | 7891 ft | 133 kts | 251° |
| 2026-05-08 12:54 | 43.31630 | -2.85248 | 7893 ft | 138 kts | 251° |
| 2026-05-08 12:55 | 43.31415 | -2.86537 | 7883 ft | 138 kts | 251° |
| 2026-05-08 12:55 | 43.31206 | -2.87810 | 7880 ft | 136 kts | 251° |
| 2026-05-08 12:55 | 43.30996 | -2.89072 | 7880 ft | 135 kts | 251° |
| 2026-05-08 12:55 | 43.30786 | -2.90329 | 7880 ft | 135 kts | 251° |
| 2026-05-08 12:56 | 43.30576 | -2.91590 | 7884 ft | 135 kts | 251° |
| 2026-05-08 12:56 | 43.30411 | -2.92864 | 7880 ft | 137 kts | 261° |
| 2026-05-08 12:56 | 43.30372 | -2.94169 | 7884 ft | 137 kts | 261° |
| 2026-05-08 12:56 | 43.30336 | -2.95478 | 7885 ft | 137 kts | 261° |
| 2026-05-08 12:57 | 43.30300 | -2.96787 | 7881 ft | 138 kts | 261° |
| 2026-05-08 12:57 | 43.30263 | -2.98103 | 7884 ft | 138 kts | 261° |
| 2026-05-08 12:57 | 43.30227 | -2.99413 | 7882 ft | 137 kts | 261° |
| 2026-05-08 12:57 | 43.30188 | -3.00723 | 7847 ft | 139 kts | 261° |
| 2026-05-08 12:58 | 43.30150 | -3.02061 | 7765 ft | 143 kts | 261° |
| 2026-05-08 12:58 | 43.30110 | -3.03447 | 7660 ft | 148 kts | 262° |
| 2026-05-08 12:58 | 43.30070 | -3.04873 | 7555 ft | 152 kts | 261° |
| 2026-05-08 12:58 | 43.30028 | -3.06333 | 7437 ft | 154 kts | 262° |
| 2026-05-08 12:59 | 43.29985 | -3.07794 | 7325 ft | 153 kts | 262° |
| 2026-05-08 12:59 | 43.29944 | -3.09249 | 7214 ft | 152 kts | 261° |
| 2026-05-08 12:59 | 43.29900 | -3.10688 | 7093 ft | 149 kts | 261° |
| 2026-05-08 12:59 | 43.29859 | -3.12107 | 7001 ft | 150 kts | 262° |
| 2026-05-08 13:00 | 43.29817 | -3.13549 | 6877 ft | 151 kts | 262° |
| 2026-05-08 13:00 | 43.29778 | -3.14998 | 6772 ft | 153 kts | 261° |
| 2026-05-08 13:00 | 43.29728 | -3.16480 | 6636 ft | 158 kts | 261° |
| 2026-05-08 13:00 | 43.29680 | -3.17972 | 6531 ft | 155 kts | 262° |
| 2026-05-08 13:01 | 43.29636 | -3.19434 | 6416 ft | 156 kts | 262° |
| 2026-05-08 13:01 | 43.29597 | -3.20932 | 6297 ft | 153 kts | 261° |
| 2026-05-08 13:01 | 43.29552 | -3.22383 | 6204 ft | 152 kts | 261° |
| 2026-05-08 13:01 | 43.29501 | -3.23836 | 6061 ft | 154 kts | 261° |
| 2026-05-08 13:02 | 43.29459 | -3.25296 | 5942 ft | 151 kts | 262° |
| 2026-05-08 13:02 | 43.29420 | -3.26713 | 5847 ft | 148 kts | 262° |
| 2026-05-08 13:02 | 43.29373 | -3.28124 | 5743 ft | 150 kts | 262° |
| 2026-05-08 13:02 | 43.29335 | -3.29568 | 5632 ft | 155 kts | 262° |
| 2026-05-08 13:03 | 43.29289 | -3.31060 | 5476 ft | 156 kts | 265° |
| 2026-05-08 13:03 | 43.29493 | -3.32540 | 5373 ft | 162 kts | 283° |
| 2026-05-08 13:03 | 43.29874 | -3.33950 | 5262 ft | 153 kts | 284° |
| 2026-05-08 13:03 | 43.30243 | -3.35269 | 5172 ft | 146 kts | 284° |
| 2026-05-08 13:04 | 43.30607 | -3.36638 | 5045 ft | 161 kts | 281° |
| 2026-05-08 13:04 | 43.30998 | -3.38115 | 4905 ft | 164 kts | 283° |
| 2026-05-08 13:04 | 43.31393 | -3.39551 | 4796 ft | 158 kts | 283° |
| 2026-05-08 13:04 | 43.31771 | -3.40937 | 4686 ft | 153 kts | 282° |
| 2026-05-08 13:05 | 43.32142 | -3.42309 | 4573 ft | 154 kts | 282° |
| 2026-05-08 13:05 | 43.32485 | -3.43662 | 4462 ft | 151 kts | 279° |
| 2026-05-08 13:05 | 43.32829 | -3.45021 | 4356 ft | 151 kts | 282° |
| 2026-05-08 13:05 | 43.33184 | -3.46401 | 4235 ft | 155 kts | 281° |
| 2026-05-08 13:06 | 43.33541 | -3.47806 | 4101 ft | 159 kts | 282° |
| 2026-05-08 13:06 | 43.33905 | -3.49207 | 4009 ft | 154 kts | 280° |
| 2026-05-08 13:06 | 43.34328 | -3.50567 | 3904 ft | 157 kts | 292° |
| 2026-05-08 13:06 | 43.35000 | -3.51776 | 3775 ft | 162 kts | 307° |
| 2026-05-08 13:07 | 43.35888 | -3.52745 | 3684 ft | 165 kts | 322° |
| 2026-05-08 13:07 | 43.36951 | -3.53403 | 3613 ft | 171 kts | 339° |
| 2026-05-08 13:07 | 43.38077 | -3.53877 | 3513 ft | 165 kts | 321° |
| 2026-05-08 13:07 | 43.38791 | -3.55060 | 3438 ft | 153 kts | 284° |
| 2026-05-08 13:08 | 43.38950 | -3.56448 | 3388 ft | 141 kts | 265° |
| 2026-05-08 13:08 | 43.39001 | -3.57749 | 3381 ft | 133 kts | 264° |
| 2026-05-08 13:08 | 43.39062 | -3.59041 | 3350 ft | 136 kts | 267° |
| 2026-05-08 13:08 | 43.39134 | -3.60322 | 3326 ft | 135 kts | 265° |
| 2026-05-08 13:09 | 43.39153 | -3.61616 | 3052 ft | 136 kts | 262° |
| 2026-05-08 13:09 | 43.39157 | -3.62925 | 3012 ft | 135 kts | 264° |
| 2026-05-08 13:09 | 43.39234 | -3.64169 | 2978 ft | 128 kts | 268° |
| 2026-05-08 13:09 | 43.39357 | -3.65364 | 2813 ft | 129 kts | 268° |
| 2026-05-08 13:10 | 43.39462 | -3.66604 | 2559 ft | 124 kts | 266° |
| 2026-05-08 13:10 | 43.39542 | -3.67659 | 2349 ft | 97 kts | 267° |
| 2026-05-08 13:10 | 43.39668 | -3.68549 | 1942 ft | 95 kts | 268° |
| 2026-05-08 13:10 | 43.39782 | -3.69452 | 1759 ft | 98 kts | 263° |
| 2026-05-08 13:11 | 43.39783 | -3.70378 | 1632 ft | 98 kts | 269° |
| 2026-05-08 13:11 | 43.39957 | -3.71282 | 1504 ft | 99 kts | 274° |
| 2026-05-08 13:11 | 43.40152 | -3.72194 | 1378 ft | 101 kts | 277° |
| 2026-05-08 13:11 | 43.40376 | -3.73139 | 1249 ft | 108 kts | 281° |
| 2026-05-08 13:12 | 43.40626 | -3.74136 | 1105 ft | 111 kts | 283° |
| 2026-05-08 13:12 | 43.40884 | -3.75148 | 962 ft | 111 kts | 283° |
| 2026-05-08 13:12 | 43.41142 | -3.76108 | 786 ft | 104 kts | 283° |
| 2026-05-08 13:12 | 43.41358 | -3.76955 | 634 ft | 87 kts | 286° |
| 2026-05-08 13:13 | 43.41542 | -3.77683 | 454 ft | 80 kts | 284° |
| 2026-05-08 13:13 | 43.41736 | -3.78400 | 390 ft | 82 kts | 290° |
| 2026-05-08 13:13 | 43.41933 | -3.79157 | 325 ft | 85 kts | 291° |
| 2026-05-08 13:13 | 43.42135 | -3.79885 | 211 ft | 79 kts | 291° |
| 2026-05-08 13:14 | 43.42318 | -3.80567 | 82 ft | 73 kts | 292° |
| 2026-05-08 13:14 | 43.42484 | -3.81177 | 21 ft | 57 kts | 292° |
| 2026-05-08 13:14 | 43.42590 | -3.81563 | 18 ft | 33 kts | 291° |
| 2026-05-08 13:14 | 43.42660 | -3.81827 | 15 ft | 27 kts | 290° |
| 2026-05-08 13:15 | 43.42721 | -3.82054 | 13 ft | 22 kts | 290° |
| 2026-05-08 13:15 | 43.42738 | -3.82213 | 13 ft | 13 kts | 228° |
| 2026-05-08 13:15 | 43.42664 | -3.82260 | 14 ft | 0 kts | 200° |
| 2026-05-08 13:16 | 43.42627 | -3.82278 | 15 ft | 9 kts | 199° |
| 2026-05-08 13:17 | 43.42552 | -3.82310 | 15 ft | 12 kts | 195° |
| 2026-05-08 13:17 | 43.42477 | -3.82354 | 15 ft | 9 kts | 201° |
| 2026-05-08 13:17 | 43.42456 | -3.82390 | 15 ft | 4 kts | 296° |
| 2026-05-08 13:17 | 43.42469 | -3.82436 | 15 ft | 6 kts | 291° |
| 2026-05-08 13:18 | 43.42482 | -3.82484 | 15 ft | 5 kts | 292° |
| 2026-05-08 13:18 | 43.42473 | -3.82529 | 15 ft | 7 kts | 217° |
| 2026-05-08 13:18 | 43.42473 | -3.82578 | 15 ft | 3 kts | 273° |
| 2026-05-08 13:18 | 43.42463 | -3.82601 | 15 ft | 3 kts | 238° |
| 2026-05-08 13:19 | 43.42464 | -3.82606 | 15 ft | 1 kts | 298° |
| 2026-05-08 13:19 | 43.42465 | -3.82609 | 15 ft | 0 kts | 292° |
| 2026-05-08 13:20 | 43.42466 | -3.82614 | 15 ft | 0 kts | 289° |
| 2026-05-08 13:20 | 43.42468 | -3.82619 | 15 ft | 0 kts | 291° |
| 2026-05-08 13:37 | 43.42467 | -3.82615 | 15 ft | 0 kts | 291° |